• Join FlightAware (Why Join?)
  • Login
  • US Flag 
12:37AM EDT


 

Airport Tracker/Info


-or-


 

Live Flight TrackerFlight Track Log ✈ QLK427 ✈ 23-Jun-2013 ✈ YBBN / BNE - YWLM / NTL

Flight Track Log - Related Links

Times and Time Zones

All times are in EDT time to prevent confusion due to time zone crossing. See the QLK427 flight status page for this flight to view local times or setup timezone preferences in your user account.

Time Position Orientation Groundspeed Altitude Reporting Facility
EDT Latitude Longitude Course Direction KTS MPH feet Rate Location/Type
04:45AM -27.4824 153.1238 171° South 153 176 3,900  Level Aus ATC (RADAR)
04:47AM -27.5516 153.1359 171° South 179 206 6,300 1,500 Climbing Aus ATC (RADAR)
04:47AM -27.5942 153.1434 171° South 188 216 7,500 1,380 Climbing Aus ATC (RADAR)
04:48AM -27.6438 153.1513 172° South 202 232 8,800 1,500 Climbing Aus ATC (RADAR)
04:49AM -27.6770 153.1566 172° South 207 238 9,800 1,440 Climbing Aus ATC (RADAR)
04:50AM -27.7365 153.1677 171° South 219 252 11,100 1,380 Climbing Aus ATC (RADAR)
04:51AM -27.7718 153.1686 179° South 217 250 12,000 1,380 Climbing Aus ATC (RADAR)
04:52AM -27.8387 153.1550 190° South 226 260 13,400 1,320 Climbing Aus ATC (RADAR)
04:52AM -27.8733 153.1492 188° South 217 250 14,200 1,440 Climbing Aus ATC (RADAR)
04:53AM -27.9112 153.1385 194° South 211 243 15,200 1,260 Climbing Aus ATC (RADAR)
04:53AM -27.9443 153.1288 195° South 211 243 15,800 1,020 Climbing Aus ATC (RADAR)
04:54AM -27.9956 153.1134 195° South 208 239 16,800 1,020 Climbing Aus ATC (RADAR)
04:55AM -28.0492 153.0973 195° South 217 250 17,700 1,140 Climbing Aus ATC (RADAR)
04:56AM -28.0956 153.0836 195° South 207 238 18,800 1,080 Climbing Aus ATC (RADAR)
04:57AM -28.1324 153.0725 195° South 205 236 19,400 900 Climbing Aus ATC (RADAR)
04:58AM -28.1781 153.0591 195° South 204 235 20,200 900 Climbing Aus ATC (RADAR)
04:58AM -28.2099 153.0497 195° South 202 232 20,700 720 Climbing Aus ATC (RADAR)
04:59AM -28.2549 153.0360 195° South 199 229 21,300 780 Climbing Aus ATC (RADAR)
05:00AM -28.3001 153.0227 195° South 200 230 22,000 600 Climbing Aus ATC (RADAR)
05:01AM -28.3465 153.0083 195° South 207 238 22,300 180 Climbing Aus ATC (RADAR)
05:01AM -28.3809 152.9975 195° South 219 252 22,300  Level Aus ATC (RADAR)
05:02AM -28.4460 152.9787 194° South 243 280 22,300  Level Aus ATC (RADAR)
05:03AM -28.5020 152.9622 195° South 250 288 22,300 -300 Level Aus ATC (RADAR)
05:04AM -28.5607 152.9440 195° South 263 303 21,800 -540 Descending Aus ATC (RADAR)
05:05AM -28.6044 152.9317 194° South 273 314 21,600 -300 Descending Aus ATC (RADAR)
05:05AM -28.6670 152.9131 195° South 279 321 21,400 -300 Descending Aus ATC (RADAR)
05:06AM -28.7363 152.8925 195° South 282 325 21,100 -360 Descending Aus ATC (RADAR)
05:07AM -28.8061 152.8713 195° South 283 326 20,800 -360 Descending Aus ATC (RADAR)
05:08AM -28.8833 152.8483 195° South 286 329 20,500 -300 Descending Aus ATC (RADAR)
05:09AM -28.9422 152.8324 193° South 291 335 20,300 -240 Descending Aus ATC (RADAR)
05:10AM -28.9876 152.8186 195° South 289 333 20,200  Descending Aus ATC (RADAR)
05:10AM -29.0519 152.7995 195° South 285 328 20,300 60 Climbing Aus ATC (RADAR)
05:11AM -29.1164 152.7804 195° South 287 330 20,300  Level Aus ATC (RADAR)
05:12AM -29.1675 152.7646 195° South 285 328 20,300  Level Aus ATC (RADAR)
05:13AM -29.2193 152.7498 194° South 286 329 20,300  Level Aus ATC (RADAR)
05:13AM -29.2645 152.7360 195° South 289 333 20,300  Level Aus ATC (RADAR)
05:14AM -29.3288 152.7160 195° South 287 330 20,300  Level Aus ATC (RADAR)
05:15AM -29.3939 152.6966 195° South 290 334 20,300  Level Aus ATC (RADAR)
05:16AM -29.4524 152.6784 195° South 291 335 20,300  Level Aus ATC (RADAR)
05:16AM -29.5173 152.6587 195° South 291 335 20,300  Level Aus ATC (RADAR)
05:17AM -29.6033 152.6336 194° South 295 339 20,300  Level Aus ATC (RADAR)
05:18AM -29.6700 152.6135 195° South 296 341 20,300  Level Aus ATC (RADAR)
05:19AM -29.7364 152.5931 195° South 296 341 20,300  Level Aus ATC (RADAR)
05:20AM -29.8029 152.5727 195° South 295 339 20,300  Level Aus ATC (RADAR)
05:21AM -29.8699 152.5528 194° South 299 344 20,300  Level Aus ATC (RADAR)
05:22AM -29.9301 152.5330 196° South 299 344 20,300  Level Aus ATC (RADAR)
05:22AM -30.0041 152.5107 195° South 299 344 20,300  Level Aus ATC (RADAR)
05:23AM -30.0502 152.4946 197° South 298 343 20,300  Level Aus ATC (RADAR)
05:24AM -30.1177 152.4745 194° South 299 344 20,300  Level Aus ATC (RADAR)
05:25AM -30.1784 152.4566 194° South 300 345 20,300  Level Aus ATC (RADAR)
05:25AM -30.2455 152.4359 195° South 299 344 20,300  Level Aus ATC (RADAR)
05:26AM -30.3256 152.4102 195° South 300 345 20,300  Level Aus ATC (RADAR)
05:27AM -30.3993 152.3886 194° South 298 343 20,300  Level Aus ATC (RADAR)
05:28AM -30.4658 152.3678 195° South 298 343 20,300  Level Aus ATC (RADAR)
05:29AM -30.5393 152.3476 193° South 295 339 20,300  Level Aus ATC (RADAR)
05:30AM -30.6006 152.3355 190° South 295 339 20,300  Level Aus ATC (RADAR)
05:31AM -30.6684 152.3199 191° South 297 342 20,300  Level Aus ATC (RADAR)
05:31AM -30.7159 152.3094 191° South 296 341 20,300  Level Aus ATC (RADAR)
05:32AM -30.7770 152.2955 191° South 297 342 20,300  Level Aus ATC (RADAR)
05:33AM -30.8373 152.2813 191° South 296 341 20,300  Level Aus ATC (RADAR)
05:33AM -30.8852 152.2714 190° South 300 345 20,300  Level Aus ATC (RADAR)
05:34AM -30.9528 152.2555 191° South 297 342 20,300  Level Aus ATC (RADAR)
05:35AM -31.0209 152.2403 191° South 297 342 20,300  Level Aus ATC (RADAR)
05:36AM -31.0889 152.2249 191° South 297 342 20,300  Level Aus ATC (RADAR)
05:36AM -31.1373 152.2142 191° South 302 348 20,300  Level Aus ATC (RADAR)
05:37AM -31.1927 152.2015 191° South 304 350 20,300  Level Aus ATC (RADAR)
05:38AM -31.2480 152.1887 191° South 305 351 20,300  Level Aus ATC (RADAR)
05:38AM -31.3038 152.1763 191° South 306 352 20,300  Level Aus ATC (RADAR)
05:39AM -31.3736 152.1608 191° South 305 351 20,300  Level Aus ATC (RADAR)
05:40AM -31.4223 152.1492 192° South 305 351 20,300  Level Aus ATC (RADAR)
05:41AM -31.5632 152.1176 191° South 307 353 20,300 -300 Level Aus ATC (RADAR)
05:44AM -31.7971 152.0634 191° South 305 351 19,200 -480 Descending Aus ATC (RADAR)
05:45AM -31.8513 152.0511 191° South 294 338 18,800 -540 Descending Aus ATC (RADAR)
05:46AM -31.9177 152.0360 191° South 290 334 18,400 -660 Descending Aus ATC (RADAR)
05:47AM -31.9905 152.0215 190° South 285 328 17,700 -900 Descending Aus ATC (RADAR)
05:47AM -32.0466 152.0286 174° South 293 337 17,000 -1,200 Descending Aus ATC (RADAR)
05:48AM -32.1241 152.0338 177° South 299 344 15,800 -1,200 Descending Aus ATC (RADAR)
05:49AM -32.1736 152.0368 177° South 301 346 15,200 -1,140 Descending Aus ATC (RADAR)
05:50AM -32.2584 152.0427 177° South 302 348 14,000 -1,200 Descending Aus ATC (RADAR)
05:50AM -32.3077 152.0462 177° South 297 342 13,300 -1,140 Descending Aus ATC (RADAR)
05:51AM -32.3904 152.0508 177° South 288 331 12,200 -1,140 Descending Aus ATC (RADAR)
05:52AM -32.4361 152.0538 177° South 279 321 11,500 -1,200 Descending Aus ATC (RADAR)
05:53AM -32.5050 152.0576 177° South 264 304 10,400 -1,380 Descending Aus ATC (RADAR)
05:53AM -32.5473 152.0606 177° South 255 293 9,500 -1,320 Descending Aus ATC (RADAR)
05:54AM -32.6074 152.0651 176° South 253 291 8,600 -1,080 Descending Aus ATC (RADAR)
05:55AM -32.6781 152.0706 176° South 249 287 7,600 -960 Descending Aus ATC (RADAR)
05:56AM -32.7332 152.0729 178° South 230 265 6,900 -960 Descending Aus ATC (RADAR)
05:57AM -32.7685 152.0749 177° South 215 247 6,300 -960 Descending Aus ATC (RADAR)
05:57AM -32.8032 152.0774 177° South 211 243 5,800 -840 Descending Aus ATC (RADAR)
05:58AM -32.8416 152.0801 177° South 204 235 5,300 -840 Descending Aus ATC (RADAR)
05:59AM -32.8727 152.0757 187° South 197 227 4,800 -1,020 Descending Aus ATC (RADAR)
05:59AM -32.8969 152.0278 239° Southwest 204 235 3,900 -1,140 Descending Aus ATC (RADAR)
06:00AM -32.8943 151.9718 273° West 187 215 2,800 -1,080 Descending Aus ATC (RADAR)
06:01AM -32.8724 151.9428 312° West 157 181 2,100 -720 Descending Aus ATC (RADAR)
06:02AM -32.8593 151.9240 310° West 126 145 1,900 -600 Descending Aus ATC (RADAR)
06:02AM -32.8445 151.9033 310° West 121 139 1,400 -780 Descending Aus ATC (RADAR)
06:03AM -32.8310 151.8845 310° West 110 127 900 -660 Descending Aus ATC (RADAR)
06:04AM -32.8196 151.8684 310° West 107 123 600 -540 Descending Aus ATC (RADAR)